Terminal Aerodrome Forecast
Issued by NWS

Home | Current Version | Previous Version | Text Only | Print | Product List | Glossary On
Versions: 1 2 3 4 5 6 7 8 9 10 11 12 13 14 15 16 17 18 19 20
000
FTUS43 KDTX 261734
TAFDET
TAF
KDET 261734Z 2618/2718 23013KT P6SM FEW030 SCT200
     FM270200 20008KT P6SM BKN040 BKN200
     FM271000 20008KT 4SM -DZ BR OVC015
     FM271400 23013KT 6SM -SHRA OVC025=

USA.gov is the U.S. government's official web portal to all federal, state and local government web resources and services.